Time;durP1;ratioP1;P1;durP2;ratioP2;P2;SDS_P1;SDS_P2;PMS_P1;PMS_P2;Temp;Humidity;BMP_temperature;BMP_pressure;BME280_temperature;BME280_humidity;BME280_pressure;Samples;Min_cycle;Max_cycle;Signal;HPM_P1;HPM_P2
2021/12/24 00:00:26;;;;;;;12.88;4.60;;;;;;;-13.24;91.29;98981.13;4839245;29;20132;-65
2021/12/24 00:02:54;;;;;;;10.25;2.90;;;;;;;-13.69;91.77;98928.91;4823876;29;20061;-64
2021/12/24 00:05:21;;;;;;;11.65;4.03;;;;;;;-13.37;91.89;98983.91;4838672;29;20062;-65
2021/12/24 00:07:46;;;;;;;11.52;4.35;;;;;;;-13.27;92.03;98988.97;4840101;29;20053;-65
2021/12/24 00:10:13;;;;;;;11.10;3.50;;;;;;;-13.25;91.48;98982.88;4838658;29;20062;-66
2021/12/24 00:12:45;;;;;;;11.38;4.50;;;;;;;-13.19;90.97;98989.72;4823777;29;20105;-65
2021/12/24 00:18:50;;;;;;;10.80;4.13;;;;;;;-13.30;91.37;98994.25;4838564;29;20515;-65
2021/12/24 00:36:55;;;;;;;14.80;5.07;;;;;;;-13.32;91.98;98991.66;4838457;29;20061;-65
2021/12/24 00:39:21;;;;;;;11.30;3.08;;;;;;;-13.39;91.31;98959.66;4823045;29;20106;-65
2021/12/24 00:41:47;;;;;;;11.88;4.10;;;;;;;-13.18;91.39;98989.69;4823340;29;20101;-65
2021/12/24 00:44:12;;;;;;;12.10;3.58;;;;;;;-13.14;91.01;98980.97;4823093;29;20096;-65
2021/12/24 00:46:39;;;;;;;12.35;3.63;;;;;;;-13.07;90.56;98983.47;4838467;29;20113;-65
2021/12/24 00:49:05;;;;;;;11.70;4.22;;;;;;;-13.04;90.51;98986.03;4838373;29;20527;-65
2021/12/24 00:57:01;;;;;;;11.80;4.40;;;;;;;-13.31;90.05;98904.13;4838542;29;20058;-65
2021/12/24 00:59:27;;;;;;;10.80;4.07;;;;;;;-12.95;89.33;98950.31;4824098;29;20490;-64
2021/12/24 01:01:53;;;;;;;11.85;4.22;;;;;;;-13.11;89.38;98907.25;4824442;29;20065;-66
2021/12/24 01:04:19;;;;;;;10.63;4.28;;;;;;;-12.88;89.63;98951.94;4839373;29;20065;-66
2021/12/24 01:06:45;;;;;;;9.95;3.63;;;;;;;-12.88;89.61;98953.69;4838750;29;20432;-66
2021/12/24 01:09:12;;;;;;;11.40;4.15;;;;;;;-12.85;89.33;98934.59;4838359;29;20066;-65
2021/12/24 01:11:37;;;;;;;11.63;4.40;;;;;;;-12.85;89.05;98942.41;4838103;29;20062;-63
2021/12/24 01:14:04;;;;;;;13.82;4.93;;;;;;;-12.88;89.21;98938.94;4823114;29;20053;-63
2021/12/24 01:16:44;;;;;;;13.52;4.78;;;;;;;-12.85;89.74;98939.78;4838186;29;20062;-65
2021/12/24 01:19:16;;;;;;;12.18;4.30;;;;;;;-12.98;89.90;98911.38;4843461;29;20054;-65
2021/12/24 01:24:24;;;;;;;12.10;4.20;;;;;;;-13.08;90.27;98915.00;4841548;29;20102;-64
2021/12/24 01:42:55;;;;;;;15.98;5.45;;;;;;;-13.31;91.82;98904.13;4842929;29;20395;-63
2021/12/24 01:45:24;;;;;;;14.32;5.03;;;;;;;-13.40;91.51;98894.72;4825889;29;20066;-64
2021/12/24 01:47:52;;;;;;;12.85;4.20;;;;;;;-13.46;91.54;98880.06;4841944;29;20066;-67
2021/12/24 01:50:20;;;;;;;13.82;4.60;;;;;;;-13.29;91.31;98920.56;4857064;29;20105;-65
2021/12/24 01:52:49;;;;;;;12.93;5.15;;;;;;;-13.35;91.70;98910.25;4826180;29;20371;-65
2021/12/24 01:55:16;;;;;;;12.95;5.55;;;;;;;-13.29;91.45;98928.34;4841437;29;20110;-66
2021/12/24 01:57:43;;;;;;;13.13;5.13;;;;;;;-13.33;91.61;98918.88;4841377;29;20061;-64
2021/12/24 02:00:12;;;;;;;12.43;4.40;;;;;;;-13.31;91.58;98930.09;4826083;29;20114;-65
2021/12/24 02:02:41;;;;;;;14.05;4.78;;;;;;;-13.29;91.06;98928.34;4826803;29;20046;-64
2021/12/24 02:05:08;;;;;;;11.65;4.45;;;;;;;-13.27;90.56;98916.19;4841683;29;20057;-65
2021/12/24 02:07:33;;;;;;;13.52;5.43;;;;;;;-13.30;90.79;98904.09;4841909;29;20117;-65
2021/12/24 02:09:59;;;;;;;13.38;4.25;;;;;;;-13.31;90.62;98898.91;4815327;29;20058;-67
2021/12/24 02:12:26;;;;;;;13.88;5.38;;;;;;;-13.52;90.00;98864.56;4841824;29;20439;-67
2021/12/24 02:14:57;;;;;;;11.75;4.68;;;;;;;-13.38;90.68;98904.22;4858202;29;20053;-65
2021/12/24 02:31:03;;;;;;;13.23;4.78;;;;;;;-13.76;90.78;98833.75;4841414;29;20522;-66
2021/12/24 02:33:29;;;;;;;13.65;5.93;;;;;;;-13.45;90.01;98874.00;4840379;29;20145;-66
2021/12/24 02:35:55;;;;;;;15.65;6.15;;;;;;;-13.62;89.74;98844.81;4855775;29;20141;-64
2021/12/24 02:38:21;;;;;;;14.55;5.97;;;;;;;-13.35;89.34;98892.03;4855909;29;20065;-64
2021/12/24 02:40:47;;;;;;;15.55;6.75;;;;;;;-13.37;89.51;98868.69;4856022;29;20522;-65
2021/12/24 02:43:16;;;;;;;14.43;5.35;;;;;;;-13.54;89.03;98840.34;4855598;29;20575;-65
2021/12/24 02:45:44;;;;;;;15.88;6.15;;;;;;;-13.37;89.24;98863.50;4839786;29;20084;-65
2021/12/24 02:56:45;;;;;;;17.80;5.88;;;;;;;-13.19;88.39;98851.91;4829677;29;20491;-64
2021/12/24 02:59:13;;;;;;;18.00;6.55;;;;;;;-13.22;88.45;98820.75;4840042;29;20089;-63
2021/12/24 03:01:42;;;;;;;16.85;6.18;;;;;;;-13.42;87.78;98801.19;4855586;29;20092;-65
2021/12/24 03:04:08;;;;;;;14.25;5.85;;;;;;;-13.23;88.17;98829.47;4840004;29;20065;-64
2021/12/24 03:06:38;;;;;;;11.50;3.75;;;;;;;-13.29;87.77;98816.56;4841586;29;20572;-65
2021/12/24 03:09:06;;;;;;;14.75;5.50;;;;;;;-13.13;88.14;98836.19;4854901;29;20066;-65
2021/12/24 03:11:33;;;;;;;15.15;6.20;;;;;;;-13.08;87.90;98834.38;4825084;29;20400;-64
2021/12/24 03:13:59;;;;;;;15.15;4.93;;;;;;;-13.06;87.71;98832.59;4839717;29;20064;-66
2021/12/24 03:16:25;;;;;;;21.08;6.10;;;;;;;-13.09;88.16;98824.00;4824547;29;20054;-65
2021/12/24 03:18:52;;;;;;;17.25;5.63;;;;;;;-13.07;87.83;98830.03;4839629;29;20446;-65
2021/12/24 03:21:23;;;;;;;16.65;7.35;;;;;;;-13.07;87.72;98838.69;4839575;29;20145;-65
2021/12/24 03:26:35;;;;;;;15.82;5.70;;;;;;;-13.07;88.19;98836.09;4839872;29;20034;-65
2021/12/24 03:29:04;;;;;;;16.48;7.22;;;;;;;-13.03;87.57;98826.50;4839111;29;20058;-65
2021/12/24 03:31:30;;;;;;;19.27;7.40;;;;;;;-13.07;88.18;98809.25;4853564;29;20165;-65
2021/12/24 03:33:58;;;;;;;16.48;5.80;;;;;;;-13.00;88.16;98832.50;4809301;29;20062;-65
2021/12/24 03:36:26;;;;;;;19.67;6.13;;;;;;;-13.09;89.13;98822.25;4824393;29;20070;-64
2021/12/24 03:38:53;;;;;;;17.35;6.75;;;;;;;-13.06;88.65;98832.59;4839285;29;20054;-65
2021/12/24 03:41:20;;;;;;;14.95;5.88;;;;;;;-13.10;88.62;98820.53;4839627;29;20499;-66
2021/12/24 03:43:47;;;;;;;17.45;5.47;;;;;;;-13.20;89.46;98808.56;4823947;29;20062;-66
2021/12/24 03:46:19;;;;;;;15.57;5.78;;;;;;;-13.11;89.70;98829.22;4839633;29;20144;-65
2021/12/24 03:49:30;;;;;;;18.50;6.22;;;;;;;-13.29;89.35;98803.56;4825442;29;20110;-65
2021/12/24 03:51:57;;;;;;;15.93;5.78;;;;;;;-13.17;89.59;98808.53;4824533;29;20453;-65
2021/12/24 03:57:07;;;;;;;18.08;6.22;;;;;;;-13.15;89.70;98804.16;4838400;29;20570;-65
2021/12/24 03:59:52;;;;;;;;;;;;;;;-13.09;89.75;98811.84;4826682;29;20050;-66
2021/12/24 04:02:36;;;;;;;;;;;;;;;-13.11;89.87;98805.84;4840875;29;19924;-65
2021/12/24 04:05:18;;;;;;;15.25;6.63;;;;;;;-13.17;89.57;98798.13;4838839;29;20407;-66
2021/12/24 04:08:02;;;;;;;17.30;7.30;;;;;;;-13.15;90.09;98806.78;4813454;29;20076;-65
2021/12/24 04:10:46;;;;;;;15.32;5.10;;;;;;;-13.29;89.80;98773.22;4823958;29;20054;-65
2021/12/24 04:13:20;;;;;;;18.23;7.40;;;;;;;-13.34;89.74;98753.38;4839251;29;20097;-66
2021/12/24 04:15:47;;;;;;;16.33;5.20;;;;;;;-13.05;89.86;98803.13;4823877;29;20061;-65
2021/12/24 04:18:24;;;;;;;17.15;5.97;;;;;;;-13.03;89.80;98790.94;4824228;29;20058;-65
2021/12/24 04:26:18;;;;;;;14.50;5.32;;;;;;;-12.88;89.17;98777.66;4823803;29;19929;-65
2021/12/24 04:28:45;;;;;;;16.83;7.07;;;;;;;-12.86;88.94;98789.78;4824640;29;20066;-65
2021/12/24 04:31:13;;;;;;;16.58;6.15;;;;;;;-12.90;88.89;98771.63;4824360;29;20058;-66
2021/12/24 04:33:45;;;;;;;15.70;5.78;;;;;;;-12.80;89.25;98766.25;4825027;29;20235;-65
2021/12/24 05:03:31;;;;;;;16.50;6.45;;;;;;;-12.41;88.25;98742.03;4823168;29;20062;-66
2021/12/24 05:06:16;;;;;;;15.35;6.00;;;;;;;-12.35;87.84;98745.41;4823720;29;20115;-66
2021/12/24 05:08:52;;;;;;;19.77;6.78;;;;;;;-12.35;87.76;98748.03;4825995;29;20123;-66
2021/12/24 05:11:20;;;;;;;17.20;6.00;;;;;;;-12.33;87.69;98746.22;4827263;29;20066;-66
2021/12/24 05:13:47;;;;;;;14.73;5.95;;;;;;;-12.42;87.62;98722.09;4827037;29;20214;-66
2021/12/24 05:22:33;;;;;;;13.77;6.15;;;;;;;-12.19;87.10;98728.56;4844605;29;20682;-65
2021/12/24 05:25:05;;;;;;;16.40;5.97;;;;;;;-12.32;87.67;98706.25;4856565;29;20116;-65
2021/12/24 05:27:31;;;;;;;15.23;6.60;;;;;;;-12.17;87.54;98729.41;4858514;29;20061;-66
2021/12/24 05:29:57;;;;;;;12.75;4.00;;;;;;;-12.12;87.43;98750.97;4837343;29;20077;-66
2021/12/24 05:32:23;;;;;;;15.73;6.18;;;;;;;-12.08;87.56;98742.19;4856339;29;20060;-65
2021/12/24 05:34:50;;;;;;;15.30;6.35;;;;;;;-12.04;87.84;98740.38;4854697;29;20065;-65
2021/12/24 05:37:16;;;;;;;14.18;5.65;;;;;;;-11.99;87.18;98735.91;4839316;29;20870;-65
2021/12/24 05:39:42;;;;;;;12.32;5.25;;;;;;;-11.99;87.25;98736.78;4855385;29;20053;-66
2021/12/24 05:42:08;;;;;;;12.15;4.50;;;;;;;-12.09;87.07;98714.44;4854148;29;20463;-65
2021/12/24 05:44:34;;;;;;;13.05;5.13;;;;;;;-11.95;86.71;98720.19;4849335;29;20061;-66
2021/12/24 05:47:06;;;;;;;13.27;5.07;;;;;;;-11.86;86.34;98720.88;4841707;29;20049;-65
2021/12/24 05:49:38;;;;;;;13.15;5.50;;;;;;;-12.00;86.35;98693.38;4854023;29;20050;-66
2021/12/24 05:52:23;;;;;;;14.38;5.85;;;;;;;-11.79;84.94;98730.22;4850745;29;20099;-64
2021/12/24 05:54:55;;;;;;;11.50;4.45;;;;;;;-11.68;85.44;98736.03;4861159;29;20165;-65
2021/12/24 05:57:22;;;;;;;13.02;5.40;;;;;;;-11.73;85.18;98724.88;4828785;29;20513;-65
2021/12/24 05:59:48;;;;;;;14.52;4.75;;;;;;;-11.66;84.84;98721.22;4838359;29;20135;-65
2021/12/24 06:02:14;;;;;;;12.68;4.32;;;;;;;-11.63;85.33;98728.94;4824110;29;20527;-65
2021/12/24 06:04:40;;;;;;;14.20;5.00;;;;;;;-11.61;84.40;98721.13;4827043;29;20425;-65
2021/12/24 06:07:06;;;;;;;11.95;5.15;;;;;;;-11.65;84.45;98712.50;4859493;29;20061;-65
2021/12/24 06:09:32;;;;;;;9.68;2.97;;;;;;;-11.54;84.18;98728.75;4828794;29;20089;-65
2021/12/24 06:11:58;;;;;;;12.90;5.10;;;;;;;-11.48;84.71;98730.31;4856497;29;20106;-67
2021/12/24 06:14:23;;;;;;;11.50;5.05;;;;;;;-11.49;84.04;98736.44;4850429;29;20072;-65
2021/12/24 06:16:59;;;;;;;12.48;4.35;;;;;;;-11.66;84.50;98692.56;4857988;29;20109;-66
2021/12/24 06:19:26;;;;;;;15.88;6.50;;;;;;;-11.64;85.34;98710.75;4850865;29;20073;-65
2021/12/24 06:21:56;;;;;;;14.80;5.63;;;;;;;-11.80;85.99;98697.25;4841182;29;20633;-65
2021/12/24 06:24:22;;;;;;;16.05;5.15;;;;;;;-11.83;86.00;98712.97;4839945;29;20144;-66
2021/12/24 06:26:49;;;;;;;15.35;5.43;;;;;;;-11.78;86.27;98724.09;4850742;29;20061;-65
2021/12/24 06:29:16;;;;;;;13.63;5.28;;;;;;;-11.69;86.67;98737.78;4831904;29;20166;-66
2021/12/24 06:31:42;;;;;;;12.98;4.93;;;;;;;-11.75;86.15;98734.47;4857778;29;20084;-65
2021/12/24 06:34:08;;;;;;;13.40;4.57;;;;;;;-11.76;86.48;98719.72;4848813;29;20124;-65
2021/12/24 06:36:37;;;;;;;14.82;5.55;;;;;;;-11.94;85.92;98698.44;4835163;29;20583;-65
2021/12/24 06:39:06;;;;;;;12.65;4.97;;;;;;;-11.60;86.09;98743.66;4847673;29;20046;-65
2021/12/24 06:41:32;;;;;;;12.25;5.18;;;;;;;-11.53;86.19;98764.34;4842000;29;20492;-64
2021/12/24 06:43:58;;;;;;;14.90;6.10;;;;;;;-11.62;86.02;98729.84;4830883;29;20610;-66
2021/12/24 06:46:24;;;;;;;17.15;5.38;;;;;;;-11.44;85.56;98761.53;4856445;29;20065;-66
2021/12/24 06:48:56;;;;;;;17.33;6.63;;;;;;;-11.68;85.32;98715.19;4826529;29;20186;-65
2021/12/24 06:51:26;;;;;;;35.58;8.07;;;;;;;-11.51;85.33;98749.53;4840173;29;20061;-65
2021/12/24 06:53:52;;;;;;;15.43;5.22;;;;;;;-11.63;86.40;98739.38;4853107;29;20065;-65
2021/12/24 06:56:20;;;;;;;15.18;6.22;;;;;;;-11.52;86.54;98762.59;4841228;29;20534;-65
2021/12/24 06:58:49;;;;;;;15.70;5.97;;;;;;;-11.55;87.93;98745.28;4841540;29;20556;-66
2021/12/24 07:01:18;;;;;;;21.77;6.70;;;;;;;-11.57;87.22;98747.06;4831634;29;20058;-65
2021/12/24 07:03:43;;;;;;;15.40;4.45;;;;;;;-11.69;87.39;98718.69;4871872;29;20478;-65
2021/12/24 07:06:09;;;;;;;13.43;5.82;;;;;;;-11.57;86.48;98749.66;4839379;29;20165;-65
2021/12/24 07:08:35;;;;;;;17.90;6.15;;;;;;;-11.74;86.34;98716.16;4825430;29;20403;-66
2021/12/24 07:11:02;;;;;;;14.95;5.65;;;;;;;-11.54;86.37;98743.53;4842096;29;20052;-65
2021/12/24 07:13:28;;;;;;;13.25;5.05;;;;;;;-11.77;85.11;98720.59;4854594;29;20065;-65
2021/12/24 07:15:53;;;;;;;18.23;6.97;;;;;;;-11.74;85.73;98725.75;4829109;29;20054;-65
2021/12/24 07:18:19;;;;;;;13.75;5.00;;;;;;;-11.70;86.26;98723.06;4834498;29;20058;-66
2021/12/24 07:20:45;;;;;;;12.68;6.05;;;;;;;-11.59;85.25;98743.63;4826521;29;20448;-66
2021/12/24 07:23:11;;;;;;;19.58;6.93;;;;;;;-11.91;85.42;98687.97;4853775;29;20490;-65
2021/12/24 07:25:37;;;;;;;13.27;4.97;;;;;;;-11.61;85.90;98740.22;4841425;29;20061;-65
2021/12/24 07:28:03;;;;;;;13.90;5.63;;;;;;;-11.66;85.22;98724.69;4836865;29;20106;-66
2021/12/24 07:30:30;;;;;;;14.35;4.80;;;;;;;-11.62;85.33;98729.84;4835467;29;20057;-65
2021/12/24 07:32:57;;;;;;;15.75;6.63;;;;;;;-11.74;85.19;98716.16;4837645;29;20106;-67
2021/12/24 07:35:23;;;;;;;13.25;4.50;;;;;;;-11.58;85.49;98742.75;4834995;29;20103;-67
2021/12/24 07:37:49;;;;;;;14.98;6.90;;;;;;;-11.64;84.57;98721.19;4839173;29;20460;-66
2021/12/24 07:40:17;;;;;;;16.88;5.40;;;;;;;-11.60;84.23;98736.69;4837901;29;20122;-66
2021/12/24 07:42:47;;;;;;;13.68;6.45;;;;;;;-11.58;84.34;98742.75;4837407;29;20152;-66
2021/12/24 07:45:14;;;;;;;12.90;5.32;;;;;;;-11.69;84.12;98713.47;4856927;29;20054;-66
2021/12/24 07:47:42;;;;;;;14.57;5.68;;;;;;;-11.74;83.69;98694.47;4853133;29;20098;-66
2021/12/24 07:51:56;;;;;;;20.30;6.55;;;;;;;-11.71;83.28;98704.81;4847840;29;20385;-67
2021/12/24 07:53:07;;;;;;;13.85;6.43;;;;;;;-11.49;82.96;98742.50;4824719;29;20510;-66
2021/12/24 07:55:34;;;;;;;14.50;6.60;;;;;;;-11.51;82.73;98744.31;4850163;29;20050;-66
2021/12/24 07:58:00;;;;;;;13.15;5.00;;;;;;;-11.57;82.52;98723.59;4838935;29;20076;-66
2021/12/24 08:00:28;;;;;;;12.02;3.92;;;;;;;-11.48;82.01;98723.38;4849026;29;20511;-66
2021/12/24 08:02:55;;;;;;;13.77;5.55;;;;;;;-11.36;81.68;98737.00;4856317;29;20061;-66
2021/12/24 08:05:25;;;;;;;14.77;5.32;;;;;;;-11.35;81.20;98739.56;4832568;29;20058;-67
2021/12/24 08:07:54;;;;;;;12.35;4.57;;;;;;;-11.66;81.98;98682.97;4861073;29;20056;-67
2021/12/24 08:10:24;;;;;;;14.05;4.65;;;;;;;-11.20;81.84;98740.94;4858668;29;20073;-67
2021/12/24 08:12:51;;;;;;;12.55;5.05;;;;;;;-11.52;81.28;98703.47;4856011;29;20076;-66
2021/12/24 08:15:18;;;;;;;12.73;4.78;;;;;;;-11.26;81.30;98747.16;4849476;29;20060;-67
2021/12/24 08:17:44;;;;;;;11.25;3.90;;;;;;;-11.24;81.02;98736.69;4843956;29;20137;-66
2021/12/24 08:20:11;;;;;;;15.30;6.10;;;;;;;-11.19;81.52;98735.69;4834944;29;20541;-66
2021/12/24 08:22:37;;;;;;;12.23;4.30;;;;;;;-11.11;80.93;98721.56;4840926;29;20391;-67
2021/12/24 08:25:08;;;;;;;14.63;6.00;;;;;;;-11.15;81.28;98723.41;4839458;29;20502;-67
2021/12/24 08:27:36;;;;;;;12.68;5.47;;;;;;;-11.09;81.13;98720.63;4854746;29;20053;-67
2021/12/24 08:30:04;;;;;;;14.88;5.55;;;;;;;-11.11;81.75;98717.22;4854162;29;20058;-67
2021/12/24 08:32:30;;;;;;;14.00;5.10;;;;;;;-11.10;81.58;98718.94;4836781;29;20072;-66
2021/12/24 08:34:56;;;;;;;14.02;4.78;;;;;;;-11.06;81.14;98709.25;4820304;29;20080;-66
2021/12/24 08:37:23;;;;;;;15.20;6.43;;;;;;;-11.21;81.09;98684.44;4855292;29;20423;-66
2021/12/24 08:39:49;;;;;;;14.15;5.40;;;;;;;-11.17;82.14;98689.53;4834286;29;20065;-66
2021/12/24 08:42:17;;;;;;;16.42;5.80;;;;;;;-11.09;81.55;98684.09;4831440;29;20058;-66
2021/12/24 08:44:43;;;;;;;17.35;7.20;;;;;;;-11.05;81.09;98690.94;4839900;29;20068;-66
2021/12/24 08:47:09;;;;;;;16.27;7.13;;;;;;;-10.99;81.56;98696.00;4854987;29;20140;-67
2021/12/24 08:49:35;;;;;;;16.35;7.10;;;;;;;-11.27;81.50;98642.88;4820782;29;20153;-66
2021/12/24 08:52:01;;;;;;;14.02;6.53;;;;;;;-10.93;81.47;98695.84;4842909;29;20060;-66
2021/12/24 08:54:27;;;;;;;13.20;4.97;;;;;;;-10.85;81.91;98698.25;4839639;29;20111;-67
2021/12/24 08:56:54;;;;;;;14.88;7.40;;;;;;;-10.85;80.98;98681.72;4832019;29;20070;-67
2021/12/24 08:59:21;;;;;;;14.70;6.32;;;;;;;-10.80;81.50;98687.66;4821838;29;20066;-66
2021/12/24 09:01:46;;;;;;;17.08;7.97;;;;;;;-11.23;81.25;98634.06;4812306;29;20058;-66
2021/12/24 09:04:13;;;;;;;15.73;7.47;;;;;;;-10.94;82.04;98688.91;4825570;29;20368;-68
2021/12/24 09:06:40;;;;;;;14.98;6.00;;;;;;;-10.86;82.27;98687.84;4856082;29;20054;-67
2021/12/24 09:09:07;;;;;;;16.30;5.97;;;;;;;-10.87;81.98;98671.31;4843815;29;20153;-67
2021/12/24 09:11:44;;;;;;;17.10;6.45;;;;;;;-11.03;81.64;98634.38;4859605;29;20058;-67
2021/12/24 09:14:11;;;;;;;16.75;6.60;;;;;;;-10.70;81.79;98681.28;4848723;29;20133;-66
2021/12/24 09:16:37;;;;;;;13.75;5.20;;;;;;;-10.68;81.54;98684.69;4829824;29;20114;-67
2021/12/24 09:19:09;;;;;;;16.60;5.65;;;;;;;-10.75;81.34;98667.50;4851818;29;20141;-67
2021/12/24 09:21:35;;;;;;;16.90;7.72;;;;;;;-10.74;81.53;98669.22;4855626;29;20061;-66
2021/12/24 09:24:02;;;;;;;15.15;7.13;;;;;;;-10.68;81.76;98671.66;4839972;29;20554;-67
2021/12/24 09:26:30;;;;;;;14.57;5.85;;;;;;;-10.67;81.64;98660.31;4854617;29;20061;-67
2021/12/24 09:28:57;;;;;;;16.33;6.45;;;;;;;-10.65;82.06;98658.50;4836968;29;20054;-67
2021/12/24 09:31:24;;;;;;;19.65;8.18;;;;;;;-10.70;81.80;98647.34;4853868;29;20463;-68
2021/12/24 09:33:50;;;;;;;16.92;8.40;;;;;;;-10.79;82.08;98645.00;4850535;29;20183;-67
2021/12/24 09:36:23;;;;;;;17.05;7.60;;;;;;;-11.13;82.30;98588.56;4850790;29;20061;-66
2021/12/24 09:38:49;;;;;;;18.35;8.05;;;;;;;-10.66;81.97;98643.75;4838036;29;20541;-67
2021/12/24 09:41:15;;;;;;;16.13;7.90;;;;;;;-10.65;82.19;98650.69;4839392;29;20058;-67
2021/12/24 09:43:41;;;;;;;18.95;6.55;;;;;;;-10.66;82.00;98628.09;4839070;29;20045;-67
2021/12/24 09:46:07;;;;;;;17.48;8.57;;;;;;;-10.59;81.47;98640.06;4833023;29;20046;-66
2021/12/24 09:48:33;;;;;;;17.45;8.20;;;;;;;-10.59;81.79;98627.00;4837965;29;20053;-67
2021/12/24 09:50:59;;;;;;;20.23;7.40;;;;;;;-10.64;81.67;98621.03;4834285;29;20499;-66
2021/12/24 09:53:25;;;;;;;17.75;6.95;;;;;;;-10.67;82.21;98629.00;4829591;29;20061;-67
2021/12/24 09:55:51;;;;;;;16.00;6.25;;;;;;;-10.53;82.30;98642.50;4851327;29;20137;-67
2021/12/24 09:58:17;;;;;;;16.30;6.75;;;;;;;-10.59;81.99;98642.66;4827513;29;20054;-67
2021/12/24 10:00:46;;;;;;;19.10;9.35;;;;;;;-10.65;82.27;98621.97;4839369;29;20145;-67
2021/12/24 10:03:27;;;;;;;19.00;7.80;;;;;;;-10.53;82.08;98619.00;4845340;29;20057;-67
2021/12/24 10:05:54;;;;;;;18.10;8.45;;;;;;;-10.65;81.81;98606.28;4831698;29;20087;-67
2021/12/24 10:08:23;;;;;;;17.35;7.43;;;;;;;-10.58;81.80;98628.72;4830818;29;20050;-67
2021/12/24 10:11:01;;;;;;;18.15;7.97;;;;;;;-10.71;81.93;98620.41;4857617;29;20137;-67
2021/12/24 10:13:54;;;;;;;15.30;8.27;;;;;;;-10.64;82.15;98633.25;4843847;29;20041;-67
2021/12/24 10:16:25;;;;;;;18.27;6.97;;;;;;;-10.79;81.72;98598.00;4872227;29;20053;-67
2021/12/24 10:18:53;;;;;;;17.92;7.70;;;;;;;-10.66;82.10;98617.66;4843395;29;20061;-67
2021/12/24 10:21:22;;;;;;;16.65;7.68;;;;;;;-10.63;82.16;98614.94;4843826;29;20137;-67
2021/12/24 10:23:56;;;;;;;19.38;7.28;;;;;;;-10.94;82.14;98576.69;4828800;29;20050;-66
2021/12/24 10:26:34;;;;;;;20.50;7.80;;;;;;;-11.03;82.05;98548.28;4846902;29;20126;-67
2021/12/24 10:29:05;;;;;;;26.95;6.03;;;;;;;-10.57;82.05;98619.97;4855359;29;20049;-67
2021/12/24 10:31:36;;;;;;;18.45;7.97;;;;;;;-10.63;82.13;98608.88;4857819;29;20727;-66
2021/12/24 10:34:10;;;;;;;19.30;8.07;;;;;;;-10.71;82.04;98586.47;4847665;29;20057;-68
2021/12/24 10:36:56;;;;;;;18.20;7.70;;;;;;;-10.68;81.97;98577.66;4858483;29;20045;-72
2021/12/24 10:39:29;;;;;;;19.42;8.70;;;;;;;-10.51;81.71;98604.13;4848883;29;20155;-69
2021/12/24 10:41:56;;;;;;;19.40;9.02;;;;;;;-10.55;81.82;98602.50;4839260;29;20045;-66
2021/12/24 10:44:28;;;;;;;18.25;7.88;;;;;;;-10.46;81.36;98611.81;4853609;29;20084;-67
2021/12/24 10:47:04;;;;;;;19.83;9.02;;;;;;;-10.55;81.41;98602.50;4849667;29;20061;-67
2021/12/24 10:49:50;;;;;;;19.83;8.70;;;;;;;-10.63;81.85;98599.28;4815130;29;20167;-67
2021/12/24 10:53:15;;;;;;;18.00;8.00;;;;;;;-10.48;81.67;98597.97;4838689;29;20054;-67
2021/12/24 10:55:09;;;;;;;18.52;7.15;;;;;;;-10.58;81.45;98576.50;4844995;29;20159;-67
2021/12/24 10:57:37;;;;;;;22.05;9.52;;;;;;;-10.58;81.64;98586.06;4855629;29;20054;-72
2021/12/24 11:00:34;;;;;;;20.75;9.82;;;;;;;-10.51;81.71;98598.03;4835152;29;20062;-67
2021/12/24 11:03:03;;;;;;;19.00;7.93;;;;;;;-10.56;82.63;98595.59;4855195;29;20062;-66
2021/12/24 11:05:44;;;;;;;21.02;8.68;;;;;;;-10.52;82.56;98597.19;4849638;29;20234;-66
2021/12/24 11:08:20;;;;;;;21.92;8.98;;;;;;;-10.46;82.04;98602.25;4841788;29;20058;-66
2021/12/24 11:10:49;;;;;;;21.40;9.65;;;;;;;-10.48;81.68;98609.25;4838428;29;20122;-67
2021/12/24 11:13:17;;;;;;;19.60;9.25;;;;;;;-10.50;82.44;98579.72;4839698;29;20137;-66
2021/12/24 11:15:51;;;;;;;20.08;8.02;;;;;;;-10.83;82.40;98538.97;4858225;29;20529;-66
2021/12/24 11:18:25;;;;;;;19.75;7.88;;;;;;;-10.71;82.47;98554.28;4840779;29;20057;-66
2021/12/24 11:20:58;;;;;;;21.10;7.93;;;;;;;-10.69;82.61;98548.09;4846162;29;20064;-67
2021/12/24 11:23:30;;;;;;;21.40;10.00;;;;;;;-10.57;82.63;98575.56;4848570;29;20141;-67
2021/12/24 11:26:04;;;;;;;19.90;8.68;;;;;;;-10.55;82.54;98573.78;4841321;29;20057;-67
2021/12/24 11:28:32;;;;;;;20.98;8.73;;;;;;;-10.53;83.06;98579.81;4841848;29;20073;-67
2021/12/24 11:31:04;;;;;;;23.85;9.23;;;;;;;-10.78;82.92;98542.31;4845485;29;20484;-66
2021/12/24 11:33:32;;;;;;;22.88;8.93;;;;;;;-10.55;83.17;98571.16;4847361;29;20073;-67
2021/12/24 11:36:00;;;;;;;20.48;9.27;;;;;;;-10.49;83.39;98581.44;4848424;29;20077;-66
2021/12/24 11:38:29;;;;;;;24.48;8.80;;;;;;;-10.47;83.39;98584.84;4857544;29;20518;-67
2021/12/24 11:40:56;;;;;;;24.58;11.75;;;;;;;-10.53;83.37;98574.59;4855299;29;20061;-66
2021/12/24 11:43:27;;;;;;;21.63;9.52;;;;;;;-10.54;83.69;98575.47;4826678;29;20480;-67
2021/12/24 11:45:56;;;;;;;22.00;9.73;;;;;;;-10.71;83.53;98542.09;4857178;29;20144;-67
2021/12/24 11:48:23;;;;;;;21.30;10.40;;;;;;;-10.75;83.38;98542.19;4833723;29;20060;-67
2021/12/24 11:50:48;;;;;;;19.48;9.40;;;;;;;-10.61;83.91;98581.78;4824018;29;20104;-66
2021/12/24 11:53:16;;;;;;;17.58;6.63;;;;;;;-10.66;83.99;98562.81;4855061;29;20057;-66
2021/12/24 11:55:45;;;;;;;22.77;9.80;;;;;;;-10.78;83.96;98534.50;4824640;29;20057;-66
2021/12/24 11:58:23;;;;;;;21.02;9.75;;;;;;;-10.78;83.65;98547.53;4851034;29;20217;-65
2021/12/24 12:00:54;;;;;;;21.60;10.35;;;;;;;-10.63;84.29;98574.94;4856455;29;20151;-66
2021/12/24 12:03:53;;;;;;;20.63;9.60;;;;;;;-10.62;84.53;98593.16;4842007;29;20068;-66
2021/12/24 12:06:22;;;;;;;22.40;8.00;;;;;;;-10.60;84.43;98583.53;4836454;29;20415;-65
2021/12/24 12:08:59;;;;;;;21.88;11.50;;;;;;;-10.62;84.46;98595.75;4841876;29;20057;-66
2021/12/24 12:11:34;;;;;;;22.05;10.55;;;;;;;-10.87;84.23;98553.03;4825692;29;20085;-66
2021/12/24 12:14:03;;;;;;;23.00;10.05;;;;;;;-10.67;84.64;98592.44;4833223;29;20209;-65
2021/12/24 12:16:41;;;;;;;24.30;9.80;;;;;;;-10.68;84.53;98585.50;4846681;29;20152;-66
2021/12/24 12:19:24;;;;;;;;;;;;;;;-10.71;84.59;98586.47;4839657;29;20175;-65
2021/12/24 12:22:46;;;;;;;26.08;12.10;;;;;;;-10.95;84.62;98548.88;4864755;29;19932;-67
2021/12/24 12:25:33;;;;;;;25.25;11.15;;;;;;;-10.84;84.96;98579.03;4823745;29;20398;-66
2021/12/24 12:28:03;;;;;;;23.60;10.32;;;;;;;-11.03;85.00;98542.19;4842197;29;20062;-65
2021/12/24 12:30:47;;;;;;;25.52;12.07;;;;;;;-10.93;84.96;98552.31;4838397;29;20169;-66
2021/12/24 12:33:19;;;;;;;24.20;10.93;;;;;;;-10.85;85.25;98582.56;4824726;29;20050;-66
2021/12/24 12:35:51;;;;;;;19.90;7.88;;;;;;;-10.90;85.69;98582.66;4818132;29;20490;-66
2021/12/24 12:38:40;;;;;;;19.52;8.15;;;;;;;-11.00;85.02;98563.84;4844600;29;20061;-65
2021/12/24 12:41:34;;;;;;;26.48;11.23;;;;;;;-10.90;85.38;98589.66;4855295;29;20061;-66
2021/12/24 12:44:06;;;;;;;22.33;10.23;;;;;;;-10.94;85.01;98579.28;4852587;29;20062;-66
2021/12/24 12:46:34;;;;;;;26.92;11.05;;;;;;;-10.90;85.47;98584.44;4825811;29;20066;-68
2021/12/24 12:49:05;;;;;;;22.73;10.27;;;;;;;-10.90;85.49;98589.66;4837983;29;20073;-67
2021/12/24 12:51:57;;;;;;;22.35;9.10;;;;;;;-10.94;85.84;98584.50;4822493;29;20144;-66
2021/12/24 12:54:38;;;;;;;23.63;11.63;;;;;;;-10.95;85.40;98588.03;4835701;29;20058;-66
2021/12/24 12:57:19;;;;;;;23.15;11.20;;;;;;;-11.22;85.54;98541.88;4854509;29;20050;-66
2021/12/24 13:00:07;;;;;;;22.75;10.45;;;;;;;-10.97;85.49;98574.19;4847729;29;20134;-65
2021/12/24 13:03:01;;;;;;;26.63;10.50;;;;;;;-10.98;85.51;98585.50;4840594;29;20053;-66
2021/12/24 13:05:42;;;;;;;26.60;12.20;;;;;;;-11.11;85.65;98559.81;4813408;29;20065;-66
2021/12/24 13:08:13;;;;;;;25.70;11.60;;;;;;;-10.97;85.44;98568.97;4851170;29;20169;-65
2021/12/24 13:10:39;;;;;;;28.80;13.23;;;;;;;-11.00;84.86;98569.06;4824957;29;20065;-66
2021/12/24 13:13:07;;;;;;;29.45;13.40;;;;;;;-11.00;85.52;98570.81;4842969;29;20058;-66
2021/12/24 13:15:43;;;;;;;23.25;9.13;;;;;;;-11.04;85.53;98551.78;4830337;29;20088;-66
2021/12/24 13:18:24;;;;;;;27.45;11.52;;;;;;;-11.08;85.59;98544.91;4831718;29;20053;-66
2021/12/24 13:23:29;;;;;;;26.38;12.68;;;;;;;-11.01;85.34;98546.44;4840502;29;20058;-66